• Join FlightAware (Why Join?)
  • Login
  • US Flag 
11:06AM EDT


 

Airport Tracker/Info


-or-


 

Live Flight TrackerFlight Track Log ✈ DAL1214 ✈ 30-Apr-2013 ✈ KATL - KMHT

Flight Track Log - Related Links

Times and Time Zones

All times are in EDT time to prevent confusion due to time zone crossing. See the DAL1214 flight status page for this flight to view local times or setup timezone preferences in your user account.

Time Position Orientation Groundspeed Altitude Reporting Facility
EDT Latitude Longitude Course Direction KTS MPH feet Rate Location/Type
06:25PM 33.6519 -84.3533 North 438 504 2,900  Level Atlanta Center
06:26PM 33.6833 -84.2811 62° Northeast 314 361 5,300 2,400 Climbing Atlanta Center
06:27PM 33.7586 -84.2786 North 272 313 7,700 2,640 Climbing Atlanta Center
06:28PM 33.9127 -84.2460 320° Northwest  Level FlightAware Approximate
06:28PM 33.8378 -84.2764 North 280 322 10,600  Level Atlanta Center
06:29PM 34.0233 -84.2667 North  Level FlightAware Approximate
06:29PM 33.9275 -84.2767 360° North 294 338 11,700  Level Atlanta Center
06:30PM 34.1401 -84.2667 North  Level FlightAware Approximate
06:30PM 34.0342 -84.2794 359° North 353 406 13,300  Level Atlanta Center
06:31PM 34.2570 -84.2667 North  Level FlightAware Approximate
06:31PM 34.1467 -84.2797 360° North 389 448 15,700  Level Atlanta Center
06:32PM 34.2636 -84.2800 360° North 414 476 17,800 2,040 Climbing Atlanta Center
06:33PM 34.3806 -84.2603 North 426 490 19,800 1,560 Climbing Atlanta Center
06:34PM 34.4869 -84.2328 12° North 426 490 21,000 1,380 Climbing Atlanta Center
06:35PM 34.6103 -84.2053 10° North 436 502 22,600 1,620 Climbing Atlanta Center
06:36PM 34.7333 -84.1778 10° North 450 518 24,300 1,740 Climbing Atlanta Center
06:37PM 34.8564 -84.1475 11° North 450 518 26,100 1,680 Climbing Atlanta Center
06:38PM 34.9797 -84.1172 11° North 450 518 27,700 1,440 Climbing Atlanta Center
06:39PM 35.1028 -84.0869 11° North 450 518 29,000 600 Climbing Atlanta Center
06:40PM 35.2258 -84.0592 10° North 450 518 29,000  Level Atlanta Center
06:41PM 35.3489 -84.0286 11° North 450 518 29,000  Level Atlanta Center
06:42PM 35.4700 -84.0006 11° North 450 518 29,000  Level Atlanta Center
06:43PM 35.5911 -83.9697 12° North 450 518 29,000  Level Atlanta Center
06:44PM 35.7142 -83.9389 11° North 450 518 29,000  Level Atlanta Center
06:45PM 35.8350 -83.9133 10° North 450 518 29,000  Level Atlanta Center
06:46PM 35.9539 -83.8669 18° North 450 518 29,000  Level Atlanta Center
06:47PM 36.0642 -83.7947 28° Northeast 444 511 29,000  Level Atlanta Center
06:48PM 36.1767 -83.7250 27° Northeast 444 511 29,000  Level Atlanta Center
06:49PM 36.2872 -83.6522 28° Northeast 444 511 29,000  Level Atlanta Center
06:50PM 36.3994 -83.5822 27° Northeast 444 511 29,000  Level Atlanta Center
06:51PM 36.4589 -83.5408 29° Northeast 449 517 29,000  Level Indianapolis Center
06:52PM 36.5822 -83.4622 27° Northeast 450 518 29,000  Level Indianapolis Center
06:53PM 36.6878 -83.3786 32° Northeast 449 517 29,000 540 Level Indianapolis Center
06:54PM 36.7886 -83.2828 37° Northeast 449 517 30,200 1,140 Climbing Indianapolis Center
06:55PM 36.8900 -83.1878 37° Northeast 451 519 31,400 960 Climbing Indianapolis Center
06:56PM 36.9919 -83.0933 36° Northeast 449 517 32,300 1,020 Climbing Indianapolis Center
06:57PM 37.1114 -82.9803 37° Northeast 451 519 33,600 840 Climbing Indianapolis Center
06:58PM 37.2106 -82.8847 37° Northeast 443 510 34,100 480 Climbing Indianapolis Center
06:59PM 37.3111 -82.7897 37° Northeast 448 516 34,600 420 Climbing Indianapolis Center
07:00PM 37.4114 -82.6928 38° Northeast 453 521 35,000 180 Climbing Indianapolis Center
07:01PM 37.5114 -82.5961 37° Northeast 451 519 35,000  Level Indianapolis Center
07:02PM 37.6108 -82.4992 38° Northeast 450 518 35,000  Level Indianapolis Center
07:03PM 37.7242 -82.3883 38° Northeast 443 510 35,000  Level Indianapolis Center
07:04PM 37.8203 -82.2947 38° Northeast 437 503 35,000  Level Indianapolis Center
07:05PM 37.9167 -82.2025 37° Northeast 434 499 35,000  Level Indianapolis Center
07:06PM 38.0017 -82.1178 38° Northeast 436 502 35,000  Level Indianapolis Center
07:08PM 38.1167 -82.0031 38° Northeast 438 504 35,000  Level Indianapolis Center
07:09PM 38.2128 -81.9078 38° Northeast 436 502 35,000  Level Indianapolis Center
07:10PM 38.3083 -81.8144 37° Northeast 435 501 35,000  Level Indianapolis Center
07:11PM 38.3947 -81.7111 43° Northeast 427 491 35,000  Level Indianapolis Center
07:12PM 38.4725 -81.5992 48° Northeast 425 489 35,000  Level Indianapolis Center
07:13PM 38.5472 -81.4894 49° Northeast 418 481 35,000  Level Indianapolis Center
07:14PM 38.6386 -81.3597 48° Northeast 417 480 35,000  Level Indianapolis Center
07:15PM 38.7153 -81.2494 48° Northeast 419 482 35,000  Level Indianapolis Center
07:16PM 38.7922 -81.1383 48° Northeast 419 482 35,000  Level Indianapolis Center
07:17PM 38.8697 -81.0275 48° Northeast 420 483 35,000  Level Indianapolis Center
07:18PM 38.9478 -80.9144 48° Northeast 423 487 35,000  Level Indianapolis Center
07:19PM 39.0389 -80.7819 48° Northeast 413 475 35,000  Level Indianapolis Center
07:20PM 39.1158 -80.6767 47° Northeast 406 467 35,000  Level Indianapolis Center
07:21PM 39.1922 -80.5675 48° Northeast 408 470 35,000  Level Indianapolis Center
07:22PM 39.2689 -80.4583 48° Northeast 411 473 35,000  Level Indianapolis Center
07:23PM 39.3456 -80.3497 48° Northeast 410 472 35,000  Level Indianapolis Center
07:24PM 39.4100 -80.2633 46° Northeast 405 466 35,000  Level Cleveland Center
07:25PM 39.4847 -80.1528 49° Northeast 410 472 35,000  Level Cleveland Center
07:26PM 39.5614 -80.0472 47° Northeast 405 466 35,000  Level Cleveland Center
07:27PM 39.6339 -79.9417 48° Northeast 400 460 35,000  Level Cleveland Center
07:28PM 39.7083 -79.8303 49° Northeast 400 460 35,000  Level Cleveland Center
07:29PM 39.7825 -79.7186 49° Northeast 400 460 35,000  Level Cleveland Center
07:30PM 39.8544 -79.6094 49° Northeast 400 460 35,000  Level Cleveland Center
07:31PM 39.9286 -79.5028 48° Northeast 400 460 35,000  Level Cleveland Center
07:32PM 39.9964 -79.4042 48° Northeast 400 460 35,000  Level Cleveland Center
07:33PM 40.0744 -79.2836 50° Northeast 389 448 35,000  Level Cleveland Center
07:34PM 40.1481 -79.1733 49° Northeast 389 448 35,000  Level Cleveland Center
07:35PM 40.2217 -79.0631 49° Northeast 389 448 35,000  Level Cleveland Center
07:36PM 40.2931 -78.9525 50° Northeast 389 448 35,000  Level Cleveland Center
07:37PM 40.3667 -78.8392 50° Northeast 389 448 35,000  Level Cleveland Center
07:38PM 40.4419 -78.7253 49° Northeast 396 456 35,000  Level Cleveland Center
07:39PM 40.5172 -78.6139 48° Northeast 401 461 35,000  Level Cleveland Center
07:40PM 40.5903 -78.5025 49° Northeast 396 456 35,000  Level Cleveland Center
07:42PM 40.7567 -78.2453 49° Northeast 406 467 35,000  Level New York Center
07:43PM 40.8306 -78.1328 49° Northeast 400 460 35,000  Level New York Center
07:44PM 40.8997 -78.0219 50° Northeast 400 460 35,000  Level New York Center
07:45PM 40.9614 -77.8994 56° Northeast 400 460 35,000  Level New York Center
07:46PM 41.0169 -77.7703 60° Northeast 395 455 35,000  Level New York Center
07:47PM 41.0722 -77.6467 59° Northeast 390 449 35,000  Level New York Center
07:48PM 41.1317 -77.5203 58° Northeast 390 449 35,000  Level New York Center
07:49PM 41.1886 -77.3964 59° Northeast 390 449 35,000  Level New York Center
07:50PM 41.2386 -77.2856 59° Northeast 384 442 35,000  Level New York Center
07:51PM 41.2972 -77.1614 58° Northeast 389 448 35,000  Level New York Center
07:52PM 41.3539 -77.0367 59° Northeast 389 448 35,000  Level New York Center
07:53PM 41.4083 -76.9117 60° Northeast 389 448 35,000  Level New York Center
07:54PM 41.4647 -76.7867 59° Northeast 389 448 35,000  Level New York Center
07:56PM 41.5936 -76.5017 59° Northeast 392 451 35,000  Level Boston Center
07:57PM 41.6503 -76.3744 59° Northeast 392 451 35,000  Level Boston Center
07:58PM 41.7067 -76.2500 59° Northeast 392 451 35,000  Level Boston Center
07:59PM 41.7631 -76.1225 59° Northeast 387 445 35,000  Level Boston Center
08:00PM 41.8172 -75.9975 60° Northeast 387 445 35,000  Level Boston Center
08:01PM 41.8731 -75.8725 59° Northeast 387 445 35,000  Level Boston Center
08:02PM 41.9269 -75.7442 61° Northeast 387 445 35,000  Level Boston Center
08:03PM 41.9828 -75.6186 59° Northeast 387 445 35,000  Level Boston Center
08:04PM 42.0383 -75.4900 60° Northeast 387 445 35,000  Level Boston Center
08:05PM 42.0958 -75.3614 59° Northeast 387 445 35,000  Level Boston Center
08:06PM 42.1492 -75.2322 61° Northeast 387 445 35,000 -60 Level Boston Center
08:07PM 42.2044 -75.1083 59° Northeast 382 440 34,900 -360 Descending Boston Center
08:08PM 42.2594 -74.9761 61° Northeast 388 447 34,300 -1,080 Descending Boston Center
08:09PM 42.3144 -74.8436 61° Northeast 388 447 32,800 -1,740 Descending Boston Center
08:10PM 42.3717 -74.7053 61° Northeast 394 453 30,900 -1,860 Descending Boston Center
08:11PM 42.4347 -74.5583 60° Northeast 418 481 29,100 -960 Descending Boston Center
08:12PM 42.4958 -74.4169 60° Northeast 430 495 29,000 -480 Descending Boston Center
08:13PM 42.5400 -74.2633 69° East 430 495 28,200 -1,080 Descending Boston Center
08:14PM 42.5614 -74.1003 80° East 430 495 26,900 -1,320 Descending Boston Center
08:15PM 42.5822 -73.9403 80° East 430 495 25,600 -1,080 Descending Boston Center
08:16PM 42.5958 -73.8503 78° East 430 495 24,800 -1,260 Descending Boston Center
08:17PM 42.6256 -73.6364 79° East 420 483 23,100 -1,500 Descending Boston Center
08:18PM 42.6456 -73.4900 79° East 406 467 21,800 -1,260 Descending Boston Center
08:19PM 42.6656 -73.3436 79° East 406 467 20,600 -1,200 Descending Boston Center
08:20PM 42.6833 -73.1997 80° East 389 448 19,500 -840 Descending Boston Center
08:21PM 42.6967 -73.0672 82° East 389 448 19,000 -540 Descending Boston Center
08:22PM 42.7203 -72.9147 78° East 384 442 18,500 -1,500 Descending Boston Center
08:23PM 42.7311 -72.7961 83° East 384 442 16,100 -2,220 Descending Boston Center
08:24PM 42.7483 -72.6381 82° East 389 448 14,100 -1,800 Descending Boston Center
08:25PM 42.7608 -72.5050 83° East 376 433 12,500 -1,200 Descending Boston Center
08:26PM 42.7756 -72.3722 81° East 359 413 11,700 -900 Descending Boston Center
08:27PM 42.7858 -72.2592 83° East 320 368 10,800 -900 Descending Boston Center
08:28PM 42.8003 -72.1400 81° East 288 331 9,900 -840 Descending Boston Center
08:29PM 42.8125 -72.0467 80° East 274 315 9,200 -900 Descending Boston Center
08:30PM 42.8558 -71.9531 58° Northeast 258 297 8,100 -1,440 Descending Boston Center
08:31PM 42.8844 -71.8733 64° Northeast 265 305 6,400 -1,740 Descending Boston Center
08:32PM 42.9258 -71.7708 61° Northeast 265 305 4,700 -1,320 Descending Boston Center
08:33PM 42.9564 -71.6969 61° Northeast 252 290 3,800 -900 Descending Boston Center
08:34PM 42.9936 -71.6169 58° Northeast 235 270 3,000 -840 Descending Boston Center